createdAt,value
2022-09-03T00:00:07.540Z,3.35
2022-09-03T00:02:41.333Z,2.47
2022-09-03T00:05:16.129Z,2.92
2022-09-03T00:07:51.064Z,1.05
2022-09-03T00:10:25.320Z,2.13
2022-09-03T00:12:57.972Z,2.00
2022-09-03T00:15:26.201Z,1.65
2022-09-03T00:17:58.057Z,2.70
2022-09-03T00:20:31.924Z,1.85
2022-09-03T00:23:04.683Z,2.63
2022-09-03T00:25:40.246Z,1.65
2022-09-03T00:28:14.185Z,2.38
2022-09-03T00:30:44.153Z,2.55
2022-09-03T00:33:19.092Z,0.88
2022-09-03T00:35:51.324Z,1.33
2022-09-03T00:38:19.144Z,0.65
2022-09-03T00:41:02.848Z,1.52
2022-09-03T00:43:43.418Z,1.85
2022-09-03T00:46:20.028Z,1.13
2022-09-03T00:49:12.632Z,1.98
2022-09-03T00:51:47.171Z,1.52
2022-09-03T00:54:22.166Z,1.55
2022-09-03T00:57:04.896Z,1.42
2022-09-03T00:59:41.463Z,3.80
2022-09-03T01:02:18.743Z,2.88
2022-09-03T01:04:56.755Z,2.38
2022-09-03T01:07:34.828Z,1.95
2022-09-03T01:10:13.144Z,6.18
2022-09-03T01:12:52.987Z,4.47
2022-09-03T01:15:28.041Z,1.10
2022-09-03T01:18:07.431Z,1.05
2022-09-03T01:20:41.196Z,1.75
2022-09-03T01:23:50.543Z,2.00
2022-09-03T01:26:30.467Z,3.70
2022-09-03T01:29:10.879Z,1.50
2022-09-03T01:31:51.376Z,1.08
2022-09-03T01:34:32.215Z,3.25
2022-09-03T01:37:12.749Z,3.67
2022-09-03T01:39:52.669Z,1.55
2022-09-03T01:42:26.523Z,2.15
2022-09-03T01:45:12.817Z,1.35
2022-09-03T01:47:54.761Z,3.28
2022-09-03T01:50:34.705Z,3.05
2022-09-03T01:53:11.721Z,1.73
2022-09-03T01:55:51.611Z,1.20
2022-09-03T01:58:23.844Z,4.78
2022-09-03T02:00:59.283Z,1.05
2022-09-03T02:03:34.831Z,0.95
2022-09-03T02:06:09.996Z,2.60
2022-09-03T02:08:37.848Z,0.77
2022-09-03T02:11:09.702Z,4.00
2022-09-03T02:13:40.680Z,1.55
2022-09-03T02:16:13.957Z,1.30
2022-09-03T02:18:45.985Z,1.83
2022-09-03T02:21:17.508Z,1.90
2022-09-03T02:23:45.412Z,1.65
2022-09-03T02:26:18.005Z,2.17
2022-09-03T02:28:46.388Z,1.65
2022-09-03T02:31:15.578Z,0.95
2022-09-03T02:33:47.482Z,1.48
2022-09-03T02:36:17.781Z,0.93
2022-09-03T02:38:46.562Z,0.98
2022-09-03T02:41:15.345Z,3.83
2022-09-03T02:43:47.259Z,3.60
2022-09-03T02:46:21.816Z,1.13
2022-09-03T02:48:50.084Z,1.60
2022-09-03T02:51:17.855Z,1.13
2022-09-03T02:53:45.971Z,1.85
2022-09-03T02:56:14.427Z,2.38
2022-09-03T02:58:42.208Z,0.60
2022-09-03T03:01:10.106Z,4.93
2022-09-03T03:03:39.332Z,1.58
2022-09-03T03:06:07.916Z,2.10
2022-09-03T03:08:35.684Z,5.82
2022-09-03T03:11:03.720Z,3.15
2022-09-03T03:13:32.609Z,2.20
2022-09-03T03:16:01.774Z,1.20
2022-09-03T03:18:30.475Z,1.40
2022-09-03T03:21:05.299Z,2.70
2022-09-03T03:23:33.500Z,3.45
2022-09-03T03:26:02.529Z,2.65
2022-09-03T03:28:33.951Z,2.33
2022-09-03T03:31:06.875Z,6.57
2022-09-03T03:33:35.008Z,1.15
2022-09-03T03:36:07.939Z,3.25
2022-09-03T03:38:36.711Z,2.92
2022-09-03T03:41:09.052Z,2.13
2022-09-03T03:43:37.054Z,1.83
2022-09-03T03:46:05.241Z,1.05
2022-09-03T03:48:33.706Z,1.20
2022-09-03T03:51:02.995Z,1.73
2022-09-03T03:53:32.136Z,2.92
2022-09-03T03:56:02.115Z,3.53
2022-09-03T03:58:31.143Z,1.20
2022-09-03T04:01:06.063Z,1.13
2022-09-03T04:03:33.899Z,4.13
2022-09-03T04:06:02.633Z,0.90
2022-09-03T04:08:34.589Z,2.50
2022-09-03T04:11:04.013Z,2.67
2022-09-03T04:13:32.551Z,0.85
2022-09-03T04:16:04.033Z,1.92
2022-09-03T04:18:32.901Z,4.22
2022-09-03T04:21:04.168Z,4.88
2022-09-03T04:23:35.943Z,1.70
2022-09-03T04:26:04.456Z,3.95
2022-09-03T04:28:33.517Z,2.58
2022-09-03T04:31:03.327Z,1.48
2022-09-03T04:33:31.623Z,1.55
2022-09-03T04:36:07.581Z,1.67
2022-09-03T04:38:38.944Z,3.75
2022-09-03T04:41:07.670Z,1.38
2022-09-03T04:43:35.473Z,1.65
2022-09-03T04:46:06.299Z,2.92
2022-09-03T04:48:35.141Z,2.45
2022-09-03T04:51:07.612Z,1.95
2022-09-03T04:53:38.476Z,2.78
2022-09-03T04:56:14.238Z,2.58
2022-09-03T05:01:14.018Z,7.25
2022-09-03T05:03:41.805Z,1.13
2022-09-03T05:06:10.041Z,7.13
2022-09-03T05:08:40.248Z,1.25
2022-09-03T05:11:08.953Z,2.85
2022-09-03T05:13:37.824Z,1.55
2022-09-03T05:16:07.732Z,1.95
2022-09-03T05:18:36.536Z,2.28
2022-09-03T05:21:06.225Z,2.63
2022-09-03T05:23:37.828Z,2.17
2022-09-03T05:26:11.088Z,1.67
2022-09-03T05:28:40.926Z,1.27
2022-09-03T05:31:10.444Z,3.40
2022-09-03T05:33:39.564Z,1.80
2022-09-03T05:36:09.884Z,4.68
2022-09-03T05:38:38.340Z,2.08
2022-09-03T05:41:10.529Z,2.63
2022-09-03T05:43:39.212Z,2.08
2022-09-03T05:46:09.035Z,2.47
2022-09-03T05:48:38.229Z,3.20
2022-09-03T05:51:08.803Z,1.60
2022-09-03T05:53:38.818Z,3.03
2022-09-03T05:56:10.746Z,1.02
2022-09-03T05:58:41.293Z,3.08
2022-09-03T06:01:14.051Z,2.53
2022-09-03T06:03:42.960Z,2.47
2022-09-03T06:06:11.401Z,5.60
2022-09-03T06:08:39.299Z,1.77
2022-09-03T06:11:09.307Z,4.28
2022-09-03T06:13:37.232Z,4.22
2022-09-03T06:16:07.799Z,3.30
2022-09-03T06:18:36.062Z,2.85
2022-09-03T06:21:07.373Z,1.55
2022-09-03T06:23:36.288Z,2.75
2022-09-03T06:26:06.476Z,5.28
2022-09-03T06:28:37.839Z,2.03
2022-09-03T06:31:08.092Z,3.22
2022-09-03T06:33:37.167Z,2.72
2022-09-03T06:36:09.035Z,3.17
2022-09-03T06:38:38.772Z,7.18
2022-09-03T06:41:08.604Z,4.15
2022-09-03T06:43:39.214Z,3.78
2022-09-03T06:46:08.744Z,1.95
2022-09-03T06:48:37.654Z,2.40
2022-09-03T06:51:07.711Z,7.38
2022-09-03T06:53:37.359Z,3.65
2022-09-03T06:56:07.851Z,4.85
2022-09-03T06:58:38.688Z,4.03
2022-09-03T07:01:08.166Z,2.38
2022-09-03T07:03:36.808Z,3.25
2022-09-03T07:06:05.341Z,5.90
2022-09-03T07:08:34.210Z,2.63
2022-09-03T07:11:03.920Z,3.35
2022-09-03T07:13:31.707Z,2.75
2022-09-03T07:16:02.121Z,5.38
2022-09-03T07:18:30.708Z,2.63
2022-09-03T07:21:02.532Z,4.85
2022-09-03T07:23:31.266Z,6.13
2022-09-03T07:26:01.169Z,3.40
2022-09-03T07:28:32.016Z,5.07
2022-09-03T07:31:05.644Z,5.25
2022-09-03T07:33:34.221Z,4.82
2022-09-03T07:36:06.386Z,6.05
2022-09-03T07:38:34.186Z,5.53
2022-09-03T07:41:05.088Z,7.72
2022-09-03T07:43:36.406Z,6.00
2022-09-03T07:46:06.944Z,6.57
2022-09-03T07:48:37.408Z,4.10
2022-09-03T07:51:05.600Z,6.90
2022-09-03T07:53:34.157Z,4.97
2022-09-03T07:56:06.220Z,9.82
2022-09-03T07:58:35.547Z,5.35
2022-09-03T08:01:11.392Z,5.57
2022-09-03T08:06:09.338Z,6.45
2022-09-03T08:08:37.856Z,5.13
2022-09-03T08:11:10.728Z,6.95
2022-09-03T08:13:40.718Z,6.25
2022-09-03T08:16:11.236Z,6.30
2022-09-03T08:18:40.059Z,6.65
2022-09-03T08:21:09.963Z,5.95
2022-09-03T08:23:41.408Z,8.32
2022-09-03T08:26:09.424Z,7.25
2022-09-03T08:28:37.789Z,6.20
2022-09-03T08:31:12.230Z,5.47
2022-09-03T08:33:41.024Z,6.50
2022-09-03T08:36:12.600Z,6.13
2022-09-03T08:38:42.322Z,5.07
2022-09-03T08:41:16.238Z,4.22
2022-09-03T08:44:07.310Z,6.03
2022-09-03T08:46:44.826Z,6.50
2022-09-03T08:49:15.720Z,5.07
2022-09-03T08:51:45.324Z,6.68
2022-09-03T08:54:14.712Z,7.22
2022-09-03T08:56:44.199Z,6.85
2022-09-03T08:59:11.948Z,7.15
2022-09-03T09:01:54.856Z,7.05
2022-09-03T09:04:34.949Z,8.30
2022-09-03T09:07:11.875Z,6.32
2022-09-03T09:09:49.880Z,5.25
2022-09-03T09:12:34.643Z,6.75
2022-09-03T09:15:13.831Z,7.18
2022-09-03T09:17:56.902Z,9.05
2022-09-03T09:20:32.643Z,9.32
2022-09-03T09:23:06.365Z,7.75
2022-09-03T09:25:39.087Z,7.93
2022-09-03T09:28:17.597Z,6.45
2022-09-03T09:30:47.650Z,5.97
2022-09-03T09:33:18.330Z,6.82
2022-09-03T09:35:47.124Z,7.20
2022-09-03T09:38:16.422Z,4.80
2022-09-03T09:40:46.133Z,4.75
2022-09-03T09:43:15.925Z,4.32
2022-09-03T09:45:46.765Z,4.65
2022-09-03T09:48:26.232Z,4.05
2022-09-03T09:51:05.431Z,3.47
2022-09-03T09:53:34.912Z,4.50
2022-09-03T09:56:03.874Z,3.97
2022-09-03T09:58:33.215Z,7.10
2022-09-03T10:01:12.979Z,7.60
2022-09-03T10:03:52.415Z,4.88
2022-09-03T10:06:41.192Z,3.92
2022-09-03T10:09:10.684Z,3.38
2022-09-03T10:11:41.208Z,2.47
2022-09-03T10:14:19.170Z,4.90
2022-09-03T10:16:51.390Z,3.25
2022-09-03T10:19:24.496Z,5.40
2022-09-03T10:21:59.896Z,3.92
2022-09-03T10:27:12.199Z,2.92
2022-09-03T10:29:41.681Z,2.65
2022-09-03T10:32:37.875Z,2.80
2022-09-03T10:35:21.688Z,2.85
2022-09-03T10:37:56.157Z,6.53
2022-09-03T10:40:33.613Z,2.10
2022-09-03T10:43:23.832Z,2.88
2022-09-03T10:46:03.131Z,2.35
2022-09-03T10:48:51.333Z,3.17
2022-09-03T10:51:26.920Z,3.40
2022-09-03T10:54:17.608Z,2.90
2022-09-03T10:56:54.717Z,2.00
2022-09-03T10:59:35.389Z,2.35
2022-09-03T11:02:22.343Z,3.97
2022-09-03T11:04:57.304Z,2.35
2022-09-03T11:07:33.540Z,3.63
2022-09-03T11:10:13.274Z,1.80
2022-09-03T11:12:46.017Z,3.08
2022-09-03T11:15:25.162Z,2.97
2022-09-03T11:18:00.817Z,1.98
2022-09-03T11:20:28.919Z,3.67
2022-09-03T11:23:02.372Z,2.30
2022-09-03T11:25:35.347Z,2.42
2022-09-03T11:28:13.852Z,3.00
2022-09-03T11:30:54.531Z,4.70
2022-09-03T11:33:25.512Z,2.47
2022-09-03T11:36:00.663Z,1.90
2022-09-03T11:38:32.034Z,4.32
2022-09-03T11:41:03.813Z,3.25
2022-09-03T11:43:33.395Z,2.35
2022-09-03T11:46:11.685Z,2.25
2022-09-03T11:48:43.511Z,1.95
2022-09-03T11:51:30.508Z,1.38
2022-09-03T11:54:01.886Z,3.20
2022-09-03T11:56:30.969Z,1.25
2022-09-03T11:59:18.006Z,1.30
2022-09-03T12:01:53.083Z,3.28
2022-09-03T12:04:25.413Z,1.88
2022-09-03T12:07:09.725Z,1.17
2022-09-03T12:10:14.151Z,2.20
2022-09-03T12:12:59.082Z,2.10
2022-09-03T12:15:50.593Z,1.40
2022-09-03T12:18:23.352Z,3.17
2022-09-03T12:21:02.994Z,2.28
2022-09-03T12:23:33.405Z,1.65
2022-09-03T12:26:06.164Z,1.40
2022-09-03T12:28:38.816Z,1.20
2022-09-03T12:31:25.313Z,1.75
2022-09-03T12:33:55.021Z,1.92
2022-09-03T12:36:23.796Z,1.27
2022-09-03T12:39:10.819Z,1.20
2022-09-03T12:41:53.070Z,0.90
2022-09-03T12:44:28.184Z,1.65
2022-09-03T12:49:51.441Z,1.42
2022-09-03T12:52:26.519Z,1.95
2022-09-03T12:54:58.585Z,1.77
2022-09-03T12:57:33.051Z,2.00
2022-09-03T13:00:06.106Z,1.73
2022-09-03T13:02:41.023Z,1.83
2022-09-03T13:05:15.333Z,1.70
2022-09-03T13:07:51.364Z,1.70
2022-09-03T13:10:27.076Z,1.50
2022-09-03T13:13:00.801Z,3.08
2022-09-03T13:15:30.001Z,2.30
2022-09-03T13:18:09.993Z,3.13
2022-09-03T13:20:47.260Z,1.58
2022-09-03T13:23:38.653Z,2.38
2022-09-03T13:26:18.232Z,1.70
2022-09-03T13:29:13.838Z,2.35
2022-09-03T13:31:47.636Z,2.38
2022-09-03T13:34:21.847Z,2.50
2022-09-03T13:36:53.385Z,2.03
2022-09-03T13:39:28.345Z,2.20
2022-09-03T13:42:05.959Z,2.42
2022-09-03T13:44:43.724Z,2.10
2022-09-03T13:47:20.303Z,4.22
2022-09-03T13:50:12.232Z,4.00
2022-09-03T13:52:43.886Z,3.10
2022-09-03T13:55:22.941Z,4.13
2022-09-03T13:57:59.626Z,2.95
2022-09-03T14:00:35.598Z,3.85
2022-09-03T14:03:16.043Z,5.65
2022-09-03T14:05:55.412Z,2.90
2022-09-03T14:08:29.600Z,4.22
2022-09-03T14:11:04.611Z,3.65
2022-09-03T14:13:47.479Z,4.55
2022-09-03T14:16:26.780Z,6.68
2022-09-03T14:19:00.205Z,3.40
2022-09-03T14:21:34.039Z,3.10
2022-09-03T14:24:07.869Z,4.93
2022-09-03T14:26:39.773Z,3.92
2022-09-03T14:29:16.933Z,3.35
2022-09-03T14:32:06.577Z,3.10
2022-09-03T14:34:46.468Z,3.83
2022-09-03T14:37:31.619Z,3.47
2022-09-03T14:40:11.805Z,3.43
2022-09-03T14:43:04.972Z,5.13
2022-09-03T14:45:53.580Z,4.85
2022-09-03T14:48:52.167Z,3.72
2022-09-03T14:51:32.360Z,4.95
2022-09-03T14:54:31.569Z,6.95
2022-09-03T14:57:13.013Z,4.93
2022-09-03T15:00:03.701Z,4.32
2022-09-03T15:03:22.548Z,3.35
2022-09-03T15:06:35.264Z,5.13
2022-09-03T15:09:18.727Z,3.80
2022-09-03T15:11:51.480Z,5.10
2022-09-03T15:14:25.516Z,3.38
2022-09-03T15:17:00.912Z,6.45
2022-09-03T15:19:49.921Z,3.75
2022-09-03T15:22:32.516Z,4.55
2022-09-03T15:25:13.924Z,12.40
2022-09-03T15:27:58.293Z,22.67
2022-09-03T15:30:36.198Z,21.27
2022-09-03T15:33:17.020Z,19.00
2022-09-03T15:36:00.476Z,7.00
2022-09-03T15:38:41.527Z,7.65
2022-09-03T15:41:24.392Z,7.30
2022-09-03T15:43:59.324Z,6.05
2022-09-03T15:46:40.871Z,4.55
2022-09-03T15:49:24.601Z,12.90
2022-09-03T15:52:03.948Z,9.85
2022-09-03T15:54:42.969Z,13.50
2022-09-03T15:57:19.375Z,7.30
2022-09-03T15:59:55.239Z,5.45
2022-09-03T16:02:31.778Z,6.18
2022-09-03T16:05:08.660Z,5.15
2022-09-03T16:07:58.493Z,8.05
2022-09-03T16:10:40.891Z,3.78
2022-09-03T16:13:26.972Z,6.85
2022-09-03T16:18:34.688Z,5.07
2022-09-03T16:21:08.544Z,3.65
2022-09-03T16:23:42.062Z,6.68
2022-09-03T16:26:16.000Z,3.55
2022-09-03T16:28:49.803Z,3.72
2022-09-03T16:31:30.399Z,4.82
2022-09-03T16:34:06.692Z,4.25
2022-09-03T16:36:43.553Z,3.17
2022-09-03T16:39:21.007Z,2.47
2022-09-03T16:41:59.810Z,1.75
2022-09-03T16:44:39.548Z,1.58
2022-09-03T16:47:15.861Z,1.63
2022-09-03T16:49:56.829Z,2.40
2022-09-03T16:52:39.004Z,3.13
2022-09-03T16:55:22.016Z,2.20
2022-09-03T16:58:14.595Z,1.92
2022-09-03T17:00:58.987Z,2.55
2022-09-03T17:04:14.736Z,2.70
2022-09-03T17:07:00.172Z,2.47
2022-09-03T17:09:44.461Z,4.90
2022-09-03T17:12:25.128Z,5.03
2022-09-03T17:15:29.386Z,6.40
2022-09-03T17:18:21.680Z,4.10
2022-09-03T17:21:06.234Z,6.10
2022-09-03T17:23:53.455Z,6.15
2022-09-03T17:26:29.771Z,5.05
2022-09-03T17:29:08.363Z,5.53
2022-09-03T17:31:49.432Z,4.50
2022-09-03T17:34:30.832Z,4.28
2022-09-03T17:37:15.385Z,7.05
2022-09-03T17:40:00.022Z,4.13
2022-09-03T17:42:34.566Z,4.78
2022-09-03T17:45:16.219Z,4.82
2022-09-03T17:48:18.473Z,6.97
2022-09-03T17:50:52.129Z,3.55
2022-09-03T17:53:26.844Z,4.00
2022-09-03T17:56:02.333Z,4.65
2022-09-03T17:58:35.272Z,5.00
2022-09-03T18:01:15.998Z,3.63
2022-09-03T18:03:50.835Z,4.22
2022-09-03T18:06:33.827Z,4.03
2022-09-03T18:09:06.186Z,4.97
2022-09-03T18:11:38.831Z,3.83
2022-09-03T18:14:21.143Z,4.63
2022-09-03T18:16:54.031Z,3.10
2022-09-03T18:19:33.081Z,4.07
2022-09-03T18:22:23.981Z,3.30
2022-09-03T18:25:14.806Z,4.85
2022-09-03T18:28:05.586Z,4.43
2022-09-03T18:30:52.963Z,5.00
2022-09-03T18:33:42.790Z,3.38
2022-09-03T18:36:29.577Z,3.30
2022-09-03T18:39:28.028Z,5.22
2022-09-03T18:42:24.332Z,4.75
2022-09-03T18:45:22.339Z,5.20
2022-09-03T18:48:24.077Z,5.72
2022-09-03T18:51:17.447Z,6.03
2022-09-03T18:54:15.107Z,7.65
2022-09-03T18:57:05.234Z,6.75
2022-09-03T19:00:13.740Z,7.45
2022-09-03T19:03:09.527Z,5.57
2022-09-03T19:06:06.351Z,4.33
2022-09-03T19:09:00.102Z,6.28
2022-09-03T19:11:52.321Z,6.65
2022-09-03T19:14:51.323Z,7.60
2022-09-03T19:17:42.582Z,5.77
2022-09-03T19:20:33.939Z,5.90
2022-09-03T19:23:21.229Z,7.40
2022-09-03T19:26:06.859Z,4.18
2022-09-03T19:28:59.134Z,5.32
2022-09-03T19:31:59.173Z,7.40
2022-09-03T19:35:05.054Z,4.55
2022-09-03T19:37:58.811Z,5.38
2022-09-03T19:40:56.651Z,7.10
2022-09-03T19:43:53.852Z,4.82
2022-09-03T19:46:53.516Z,8.60
2022-09-03T19:49:47.784Z,5.63
2022-09-03T19:52:39.342Z,6.72
2022-09-03T19:55:25.944Z,7.85
2022-09-03T19:58:41.635Z,6.13
2022-09-03T20:01:24.967Z,6.97
2022-09-03T20:04:13.315Z,6.30
2022-09-03T20:06:58.752Z,5.95
2022-09-03T20:09:48.598Z,5.87
2022-09-03T20:12:21.701Z,7.20
2022-09-03T20:14:49.801Z,6.47
2022-09-03T20:17:28.563Z,4.60
2022-09-03T20:20:10.758Z,7.60
2022-09-03T20:22:47.400Z,3.67
2022-09-03T20:25:42.263Z,5.82
2022-09-03T20:28:26.190Z,4.57
2022-09-03T20:31:00.859Z,6.40
2022-09-03T20:33:53.008Z,3.72
2022-09-03T20:36:33.472Z,3.75
2022-09-03T20:39:33.141Z,5.50
2022-09-03T20:42:13.059Z,6.47
2022-09-03T20:44:55.035Z,8.80
2022-09-03T20:48:01.796Z,6.55
2022-09-03T20:50:45.444Z,4.30
2022-09-03T20:53:33.440Z,5.50
2022-09-03T20:56:10.501Z,4.35
2022-09-03T20:58:45.735Z,6.07
2022-09-03T21:01:20.084Z,3.97
2022-09-03T21:03:59.324Z,4.15
2022-09-03T21:06:36.356Z,4.88
2022-09-03T21:09:34.210Z,3.58
2022-09-03T21:12:09.024Z,3.03
2022-09-03T21:14:41.333Z,6.38
2022-09-03T21:17:31.831Z,4.68
2022-09-03T21:20:12.127Z,4.75
2022-09-03T21:22:52.586Z,4.90
2022-09-03T21:25:26.005Z,5.90
2022-09-03T21:27:59.922Z,4.05
2022-09-03T21:30:30.823Z,2.80
2022-09-03T21:33:07.879Z,3.92
2022-09-03T21:35:40.090Z,4.10
2022-09-03T21:38:12.592Z,5.38
2022-09-03T21:40:47.966Z,4.78
2022-09-03T21:43:20.276Z,11.05
2022-09-03T21:45:54.087Z,8.60
2022-09-03T21:48:26.120Z,11.80
2022-09-03T21:50:57.121Z,17.00
2022-09-03T21:53:32.595Z,18.40
2022-09-03T21:56:22.665Z,16.38
2022-09-03T21:59:08.934Z,19.15
2022-09-03T22:01:49.466Z,18.35
2022-09-03T22:04:17.261Z,21.52
2022-09-03T22:06:54.468Z,25.73
2022-09-03T22:09:30.481Z,25.42
2022-09-03T22:12:07.285Z,35.30
2022-09-03T22:14:43.056Z,40.33
2022-09-03T22:19:40.119Z,25.98
2022-09-03T22:22:17.655Z,22.05
2022-09-03T22:24:51.520Z,20.05
2022-09-03T22:27:27.183Z,16.00
2022-09-03T22:30:03.718Z,17.17
2022-09-03T22:32:41.409Z,18.02
2022-09-03T22:35:42.642Z,12.88
2022-09-03T22:38:25.875Z,10.70
2022-09-03T22:40:59.264Z,8.02
2022-09-03T22:43:40.326Z,6.85
2022-09-03T22:46:14.569Z,6.55
2022-09-03T22:49:02.480Z,7.20
2022-09-03T22:51:38.684Z,6.15
2022-09-03T22:54:19.868Z,7.22
2022-09-03T22:56:47.760Z,9.13
2022-09-03T22:59:22.470Z,9.80
2022-09-03T23:01:57.641Z,8.80
2022-09-03T23:04:31.516Z,9.43
2022-09-03T23:07:04.124Z,7.22
2022-09-03T23:09:38.972Z,8.38
2022-09-03T23:12:11.399Z,9.13
2022-09-03T23:14:48.733Z,8.30
2022-09-03T23:17:25.049Z,8.23
2022-09-03T23:19:59.956Z,7.13
2022-09-03T23:22:34.096Z,7.63
2022-09-03T23:25:07.088Z,7.93
2022-09-03T23:27:40.268Z,11.10
2022-09-03T23:30:10.279Z,15.77
2022-09-03T23:32:38.104Z,7.93
2022-09-03T23:35:13.084Z,6.25
2022-09-03T23:37:58.428Z,7.17
2022-09-03T23:40:45.124Z,7.97
2022-09-03T23:43:34.452Z,8.93
2022-09-03T23:46:08.814Z,8.52
2022-09-03T23:48:49.099Z,8.90
2022-09-03T23:51:25.772Z,7.95
2022-09-03T23:54:07.939Z,7.80
2022-09-03T23:56:58.225Z,8.48
2022-09-03T23:59:36.341Z,8.68
